sensor_id;sensor_type;location;lat;lon;timestamp;temperature;humidity
12726;DHT22;6427;49.754;6.106;2022-10-30T00:02:21;11.60;99.90
12726;DHT22;6427;49.754;6.106;2022-10-30T00:04:48;11.60;99.90
12726;DHT22;6427;49.754;6.106;2022-10-30T00:07:17;11.60;99.90
12726;DHT22;6427;49.754;6.106;2022-10-30T00:09:44;11.60;99.90
12726;DHT22;6427;49.754;6.106;2022-10-30T00:12:12;11.60;99.90
12726;DHT22;6427;49.754;6.106;2022-10-30T00:14:39;11.80;99.90
12726;DHT22;6427;49.754;6.106;2022-10-30T00:17:07;11.80;99.90
12726;DHT22;6427;49.754;6.106;2022-10-30T00:19:34;12.00;99.90
12726;DHT22;6427;49.754;6.106;2022-10-30T00:22:03;11.90;99.90
12726;DHT22;6427;49.754;6.106;2022-10-30T00:24:29;11.90;99.90
12726;DHT22;6427;49.754;6.106;2022-10-30T00:26:57;11.80;99.90
12726;DHT22;6427;49.754;6.106;2022-10-30T00:29:25;11.70;99.90
12726;DHT22;6427;49.754;6.106;2022-10-30T00:31:53;11.60;99.90
12726;DHT22;6427;49.754;6.106;2022-10-30T00:34:20;11.60;99.90
12726;DHT22;6427;49.754;6.106;2022-10-30T00:36:48;11.50;99.90
12726;DHT22;6427;49.754;6.106;2022-10-30T00:39:16;11.40;99.90
12726;DHT22;6427;49.754;6.106;2022-10-30T00:41:43;11.40;99.90
12726;DHT22;6427;49.754;6.106;2022-10-30T00:47:17;11.30;99.90
12726;DHT22;6427;49.754;6.106;2022-10-30T00:49:49;11.20;99.90
12726;DHT22;6427;49.754;6.106;2022-10-30T00:52:14;11.20;99.90
12726;DHT22;6427;49.754;6.106;2022-10-30T00:54:42;11.20;99.90
12726;DHT22;6427;49.754;6.106;2022-10-30T00:57:10;11.20;99.90
12726;DHT22;6427;49.754;6.106;2022-10-30T00:59:37;11.20;99.90
12726;DHT22;6427;49.754;6.106;2022-10-30T01:02:05;11.20;99.90
12726;DHT22;6427;49.754;6.106;2022-10-30T01:04:34;11.20;99.90
12726;DHT22;6427;49.754;6.106;2022-10-30T01:07:04;11.10;99.90
12726;DHT22;6427;49.754;6.106;2022-10-30T01:09:28;11.10;99.90
12726;DHT22;6427;49.754;6.106;2022-10-30T01:11:56;11.30;99.90
12726;DHT22;6427;49.754;6.106;2022-10-30T01:14:23;11.30;99.90
12726;DHT22;6427;49.754;6.106;2022-10-30T01:17:08;11.30;99.90
12726;DHT22;6427;49.754;6.106;2022-10-30T01:19:36;11.10;99.90
12726;DHT22;6427;49.754;6.106;2022-10-30T01:31:02;11.00;99.90
12726;DHT22;6427;49.754;6.106;2022-10-30T01:36:35;10.80;99.90
12726;DHT22;6427;49.754;6.106;2022-10-30T01:39:04;10.80;99.90
12726;DHT22;6427;49.754;6.106;2022-10-30T01:41:31;10.70;99.90
12726;DHT22;6427;49.754;6.106;2022-10-30T01:44:00;10.70;99.90
12726;DHT22;6427;49.754;6.106;2022-10-30T01:46:36;10.90;99.90
12726;DHT22;6427;49.754;6.106;2022-10-30T01:49:22;10.90;99.90
12726;DHT22;6427;49.754;6.106;2022-10-30T01:55:04;10.80;99.90
12726;DHT22;6427;49.754;6.106;2022-10-30T01:57:35;10.70;99.90
12726;DHT22;6427;49.754;6.106;2022-10-30T02:02:28;10.60;99.90
12726;DHT22;6427;49.754;6.106;2022-10-30T02:04:57;10.60;99.90
12726;DHT22;6427;49.754;6.106;2022-10-30T02:07:24;10.60;99.90
12726;DHT22;6427;49.754;6.106;2022-10-30T02:09:52;10.50;99.90
12726;DHT22;6427;49.754;6.106;2022-10-30T02:12:20;10.80;99.90
12726;DHT22;6427;49.754;6.106;2022-10-30T02:14:48;10.70;99.90
12726;DHT22;6427;49.754;6.106;2022-10-30T02:17:15;10.90;99.90
12726;DHT22;6427;49.754;6.106;2022-10-30T02:19:42;10.90;99.90
12726;DHT22;6427;49.754;6.106;2022-10-30T02:22:11;10.70;99.90
12726;DHT22;6427;49.754;6.106;2022-10-30T02:24:38;10.70;99.90
12726;DHT22;6427;49.754;6.106;2022-10-30T02:27:06;10.70;99.90
12726;DHT22;6427;49.754;6.106;2022-10-30T02:29:33;10.60;99.90
12726;DHT22;6427;49.754;6.106;2022-10-30T02:32:01;10.50;99.90
12726;DHT22;6427;49.754;6.106;2022-10-30T02:34:28;10.50;99.90
12726;DHT22;6427;49.754;6.106;2022-10-30T02:36:56;10.50;99.90
12726;DHT22;6427;49.754;6.106;2022-10-30T02:39:25;10.40;99.90
12726;DHT22;6427;49.754;6.106;2022-10-30T02:41:52;10.40;99.90
12726;DHT22;6427;49.754;6.106;2022-10-30T02:44:20;10.40;99.90
12726;DHT22;6427;49.754;6.106;2022-10-30T02:46:47;10.40;99.90
12726;DHT22;6427;49.754;6.106;2022-10-30T02:49:15;10.40;99.90
12726;DHT22;6427;49.754;6.106;2022-10-30T02:51:42;10.30;99.90
12726;DHT22;6427;49.754;6.106;2022-10-30T02:54:10;10.50;99.90
12726;DHT22;6427;49.754;6.106;2022-10-30T02:56:41;10.50;99.90
12726;DHT22;6427;49.754;6.106;2022-10-30T02:59:05;10.40;99.90
12726;DHT22;6427;49.754;6.106;2022-10-30T03:01:33;10.40;99.90
12726;DHT22;6427;49.754;6.106;2022-10-30T03:04:00;10.40;99.90
12726;DHT22;6427;49.754;6.106;2022-10-30T03:06:28;10.30;99.90
12726;DHT22;6427;49.754;6.106;2022-10-30T03:08:56;10.20;99.90
12726;DHT22;6427;49.754;6.106;2022-10-30T03:11:24;10.20;99.90
12726;DHT22;6427;49.754;6.106;2022-10-30T03:13:51;10.10;99.90
12726;DHT22;6427;49.754;6.106;2022-10-30T03:16:20;10.00;99.90
12726;DHT22;6427;49.754;6.106;2022-10-30T03:18:47;9.90;99.90
12726;DHT22;6427;49.754;6.106;2022-10-30T03:21:16;9.90;99.90
12726;DHT22;6427;49.754;6.106;2022-10-30T03:23:43;9.90;99.90
12726;DHT22;6427;49.754;6.106;2022-10-30T03:26:10;9.90;99.90
12726;DHT22;6427;49.754;6.106;2022-10-30T03:28:38;9.90;99.90
12726;DHT22;6427;49.754;6.106;2022-10-30T03:31:07;9.90;99.90
12726;DHT22;6427;49.754;6.106;2022-10-30T03:33:34;9.80;99.90
12726;DHT22;6427;49.754;6.106;2022-10-30T03:36:02;9.80;99.90
12726;DHT22;6427;49.754;6.106;2022-10-30T03:38:29;9.80;99.90
12726;DHT22;6427;49.754;6.106;2022-10-30T03:40:57;9.80;99.90
12726;DHT22;6427;49.754;6.106;2022-10-30T03:43:24;9.80;99.90
12726;DHT22;6427;49.754;6.106;2022-10-30T03:45:52;9.80;99.90
12726;DHT22;6427;49.754;6.106;2022-10-30T03:48:20;9.80;99.90
12726;DHT22;6427;49.754;6.106;2022-10-30T03:50:47;9.80;99.90
12726;DHT22;6427;49.754;6.106;2022-10-30T03:53:14;9.80;99.90
12726;DHT22;6427;49.754;6.106;2022-10-30T03:55:42;10.00;99.90
12726;DHT22;6427;49.754;6.106;2022-10-30T03:58:09;10.00;99.90
12726;DHT22;6427;49.754;6.106;2022-10-30T04:00:37;9.90;99.90
12726;DHT22;6427;49.754;6.106;2022-10-30T04:03:06;9.80;99.90
12726;DHT22;6427;49.754;6.106;2022-10-30T04:05:34;9.80;99.90
12726;DHT22;6427;49.754;6.106;2022-10-30T04:08:02;9.70;99.90
12726;DHT22;6427;49.754;6.106;2022-10-30T04:10:29;9.70;99.90
12726;DHT22;6427;49.754;6.106;2022-10-30T04:13:06;9.70;99.90
12726;DHT22;6427;49.754;6.106;2022-10-30T04:15:30;9.70;99.90
12726;DHT22;6427;49.754;6.106;2022-10-30T04:17:57;9.70;99.90
12726;DHT22;6427;49.754;6.106;2022-10-30T04:20:25;9.90;99.90
12726;DHT22;6427;49.754;6.106;2022-10-30T04:23:03;9.90;99.90
12726;DHT22;6427;49.754;6.106;2022-10-30T04:25:30;9.90;99.90
12726;DHT22;6427;49.754;6.106;2022-10-30T04:27:57;9.90;99.90
12726;DHT22;6427;49.754;6.106;2022-10-30T04:30:25;9.90;99.90
12726;DHT22;6427;49.754;6.106;2022-10-30T04:32:53;9.80;99.90
12726;DHT22;6427;49.754;6.106;2022-10-30T04:35:21;9.80;99.90
12726;DHT22;6427;49.754;6.106;2022-10-30T04:38:00;9.80;99.90
12726;DHT22;6427;49.754;6.106;2022-10-30T04:40:26;9.70;99.90
12726;DHT22;6427;49.754;6.106;2022-10-30T04:42:52;9.70;99.90
12726;DHT22;6427;49.754;6.106;2022-10-30T04:45:20;9.70;99.90
12726;DHT22;6427;49.754;6.106;2022-10-30T04:47:49;9.70;99.90
12726;DHT22;6427;49.754;6.106;2022-10-30T04:50:16;9.70;99.90
12726;DHT22;6427;49.754;6.106;2022-10-30T04:52:44;9.60;99.90
12726;DHT22;6427;49.754;6.106;2022-10-30T04:55:12;9.60;99.90
12726;DHT22;6427;49.754;6.106;2022-10-30T04:57:40;9.60;99.90
12726;DHT22;6427;49.754;6.106;2022-10-30T05:00:07;9.60;99.90
12726;DHT22;6427;49.754;6.106;2022-10-30T05:02:36;9.80;99.90
12726;DHT22;6427;49.754;6.106;2022-10-30T05:05:03;9.80;99.90
12726;DHT22;6427;49.754;6.106;2022-10-30T05:07:31;9.90;99.90
12726;DHT22;6427;49.754;6.106;2022-10-30T05:09:59;9.80;99.90
12726;DHT22;6427;49.754;6.106;2022-10-30T05:12:27;9.80;99.90
12726;DHT22;6427;49.754;6.106;2022-10-30T05:14:54;9.80;99.90
12726;DHT22;6427;49.754;6.106;2022-10-30T05:17:22;9.80;99.90
12726;DHT22;6427;49.754;6.106;2022-10-30T05:19:49;9.80;99.90
12726;DHT22;6427;49.754;6.106;2022-10-30T05:22:17;9.80;99.90
12726;DHT22;6427;49.754;6.106;2022-10-30T05:24:45;9.80;99.90
12726;DHT22;6427;49.754;6.106;2022-10-30T05:27:13;9.80;99.90
12726;DHT22;6427;49.754;6.106;2022-10-30T05:29:40;9.80;99.90
12726;DHT22;6427;49.754;6.106;2022-10-30T05:32:08;9.70;99.90
12726;DHT22;6427;49.754;6.106;2022-10-30T05:34:36;9.70;99.90
12726;DHT22;6427;49.754;6.106;2022-10-30T05:37:04;9.60;99.90
12726;DHT22;6427;49.754;6.106;2022-10-30T05:39:32;9.50;99.90
12726;DHT22;6427;49.754;6.106;2022-10-30T05:41:59;9.50;99.90
12726;DHT22;6427;49.754;6.106;2022-10-30T05:44:27;9.50;99.90
12726;DHT22;6427;49.754;6.106;2022-10-30T05:46:55;9.50;99.90
12726;DHT22;6427;49.754;6.106;2022-10-30T05:49:22;9.70;99.90
12726;DHT22;6427;49.754;6.106;2022-10-30T05:51:50;9.70;99.90
12726;DHT22;6427;49.754;6.106;2022-10-30T05:54:18;9.70;99.90
12726;DHT22;6427;49.754;6.106;2022-10-30T05:56:45;9.70;99.90
12726;DHT22;6427;49.754;6.106;2022-10-30T05:59:13;9.70;99.90
12726;DHT22;6427;49.754;6.106;2022-10-30T06:01:40;9.70;99.90
12726;DHT22;6427;49.754;6.106;2022-10-30T06:04:08;9.70;99.90
12726;DHT22;6427;49.754;6.106;2022-10-30T06:06:35;9.60;99.90
12726;DHT22;6427;49.754;6.106;2022-10-30T06:09:03;9.60;99.90
12726;DHT22;6427;49.754;6.106;2022-10-30T06:11:30;9.60;99.90
12726;DHT22;6427;49.754;6.106;2022-10-30T06:13:58;9.60;99.90
12726;DHT22;6427;49.754;6.106;2022-10-30T06:16:26;9.60;99.90
12726;DHT22;6427;49.754;6.106;2022-10-30T06:18:53;9.60;99.90
12726;DHT22;6427;49.754;6.106;2022-10-30T06:21:21;9.60;99.90
12726;DHT22;6427;49.754;6.106;2022-10-30T06:23:48;9.60;99.90
12726;DHT22;6427;49.754;6.106;2022-10-30T06:26:16;9.50;99.90
12726;DHT22;6427;49.754;6.106;2022-10-30T06:28:43;9.50;99.90
12726;DHT22;6427;49.754;6.106;2022-10-30T06:31:12;9.60;99.90
12726;DHT22;6427;49.754;6.106;2022-10-30T06:33:40;9.60;99.90
12726;DHT22;6427;49.754;6.106;2022-10-30T06:36:08;9.60;99.90
12726;DHT22;6427;49.754;6.106;2022-10-30T06:38:37;9.60;99.90
12726;DHT22;6427;49.754;6.106;2022-10-30T06:41:04;9.50;99.90
12726;DHT22;6427;49.754;6.106;2022-10-30T06:43:32;9.50;99.90
12726;DHT22;6427;49.754;6.106;2022-10-30T06:46:00;9.50;99.90
12726;DHT22;6427;49.754;6.106;2022-10-30T06:48:28;9.40;99.90
12726;DHT22;6427;49.754;6.106;2022-10-30T06:50:56;9.40;99.90
12726;DHT22;6427;49.754;6.106;2022-10-30T06:53:23;9.40;99.90
12726;DHT22;6427;49.754;6.106;2022-10-30T06:55:54;9.40;99.90
12726;DHT22;6427;49.754;6.106;2022-10-30T06:58:21;9.40;99.90
12726;DHT22;6427;49.754;6.106;2022-10-30T07:00:48;9.30;99.90
12726;DHT22;6427;49.754;6.106;2022-10-30T07:03:17;9.60;99.90
12726;DHT22;6427;49.754;6.106;2022-10-30T07:05:44;9.60;99.90
12726;DHT22;6427;49.754;6.106;2022-10-30T07:08:12;9.60;99.90
12726;DHT22;6427;49.754;6.106;2022-10-30T07:10:40;9.60;99.90
12726;DHT22;6427;49.754;6.106;2022-10-30T07:13:08;9.60;99.90
12726;DHT22;6427;49.754;6.106;2022-10-30T07:15:36;9.60;99.90
12726;DHT22;6427;49.754;6.106;2022-10-30T07:18:05;9.70;99.90
12726;DHT22;6427;49.754;6.106;2022-10-30T07:20:33;9.70;99.90
12726;DHT22;6427;49.754;6.106;2022-10-30T07:23:00;9.70;99.90
12726;DHT22;6427;49.754;6.106;2022-10-30T07:25:28;9.70;99.90
12726;DHT22;6427;49.754;6.106;2022-10-30T07:27:55;9.80;99.90
12726;DHT22;6427;49.754;6.106;2022-10-30T07:30:24;9.80;99.90
12726;DHT22;6427;49.754;6.106;2022-10-30T07:32:58;9.80;99.90
12726;DHT22;6427;49.754;6.106;2022-10-30T07:35:25;9.80;99.90
12726;DHT22;6427;49.754;6.106;2022-10-30T07:37:52;9.80;99.90
12726;DHT22;6427;49.754;6.106;2022-10-30T07:40:20;9.80;99.90
12726;DHT22;6427;49.754;6.106;2022-10-30T07:42:48;10.00;99.90
12726;DHT22;6427;49.754;6.106;2022-10-30T07:45:15;10.10;99.90
12726;DHT22;6427;49.754;6.106;2022-10-30T07:47:43;10.10;99.90
12726;DHT22;6427;49.754;6.106;2022-10-30T07:50:12;10.10;99.90
12726;DHT22;6427;49.754;6.106;2022-10-30T07:52:40;10.10;99.90
12726;DHT22;6427;49.754;6.106;2022-10-30T07:55:08;10.10;99.90
12726;DHT22;6427;49.754;6.106;2022-10-30T07:57:40;10.10;99.90
12726;DHT22;6427;49.754;6.106;2022-10-30T08:00:08;10.40;99.90
12726;DHT22;6427;49.754;6.106;2022-10-30T08:02:35;10.40;99.90
12726;DHT22;6427;49.754;6.106;2022-10-30T08:05:04;10.40;99.90
12726;DHT22;6427;49.754;6.106;2022-10-30T08:07:34;10.40;99.90
12726;DHT22;6427;49.754;6.106;2022-10-30T08:10:02;10.40;99.90
12726;DHT22;6427;49.754;6.106;2022-10-30T08:12:30;10.60;99.90
12726;DHT22;6427;49.754;6.106;2022-10-30T08:14:56;10.60;99.90
12726;DHT22;6427;49.754;6.106;2022-10-30T08:17:25;10.70;99.90
12726;DHT22;6427;49.754;6.106;2022-10-30T08:19:52;10.70;99.90
12726;DHT22;6427;49.754;6.106;2022-10-30T08:22:20;10.60;99.90
12726;DHT22;6427;49.754;6.106;2022-10-30T08:24:47;10.60;99.90
12726;DHT22;6427;49.754;6.106;2022-10-30T08:27:16;10.50;99.90
12726;DHT22;6427;49.754;6.106;2022-10-30T08:29:43;10.50;99.90
12726;DHT22;6427;49.754;6.106;2022-10-30T08:32:12;10.70;99.90
12726;DHT22;6427;49.754;6.106;2022-10-30T08:34:40;10.70;99.90
12726;DHT22;6427;49.754;6.106;2022-10-30T08:37:08;10.70;99.90
12726;DHT22;6427;49.754;6.106;2022-10-30T08:39:35;10.70;99.90
12726;DHT22;6427;49.754;6.106;2022-10-30T08:42:03;10.70;99.90
12726;DHT22;6427;49.754;6.106;2022-10-30T08:44:30;10.70;99.90
12726;DHT22;6427;49.754;6.106;2022-10-30T08:46:58;10.70;99.90
12726;DHT22;6427;49.754;6.106;2022-10-30T08:49:25;10.80;99.90
12726;DHT22;6427;49.754;6.106;2022-10-30T08:51:53;10.80;99.90
12726;DHT22;6427;49.754;6.106;2022-10-30T08:54:21;10.90;99.90
12726;DHT22;6427;49.754;6.106;2022-10-30T08:56:48;11.10;99.90
12726;DHT22;6427;49.754;6.106;2022-10-30T08:59:16;11.20;99.90
12726;DHT22;6427;49.754;6.106;2022-10-30T09:01:43;11.20;99.90
12726;DHT22;6427;49.754;6.106;2022-10-30T09:04:12;11.40;99.90
12726;DHT22;6427;49.754;6.106;2022-10-30T09:06:39;11.40;99.90
12726;DHT22;6427;49.754;6.106;2022-10-30T09:09:07;11.40;99.90
12726;DHT22;6427;49.754;6.106;2022-10-30T09:11:35;11.50;99.90
12726;DHT22;6427;49.754;6.106;2022-10-30T09:14:02;11.60;99.90
12726;DHT22;6427;49.754;6.106;2022-10-30T09:16:30;11.70;99.90
12726;DHT22;6427;49.754;6.106;2022-10-30T09:18:57;11.70;99.90
12726;DHT22;6427;49.754;6.106;2022-10-30T09:21:25;11.80;99.90
12726;DHT22;6427;49.754;6.106;2022-10-30T09:23:53;12.00;99.90
12726;DHT22;6427;49.754;6.106;2022-10-30T09:26:21;12.40;99.90
12726;DHT22;6427;49.754;6.106;2022-10-30T09:28:49;12.40;99.90
12726;DHT22;6427;49.754;6.106;2022-10-30T09:31:16;12.40;99.90
12726;DHT22;6427;49.754;6.106;2022-10-30T09:33:44;12.50;99.90
12726;DHT22;6427;49.754;6.106;2022-10-30T09:36:11;12.60;99.90
12726;DHT22;6427;49.754;6.106;2022-10-30T09:38:39;12.70;99.90
12726;DHT22;6427;49.754;6.106;2022-10-30T09:41:12;12.90;99.90
12726;DHT22;6427;49.754;6.106;2022-10-30T09:52:25;13.30;99.90
12726;DHT22;6427;49.754;6.106;2022-10-30T09:55:04;13.40;99.90
12726;DHT22;6427;49.754;6.106;2022-10-30T09:58:06;13.40;99.90
12726;DHT22;6427;49.754;6.106;2022-10-30T10:00:32;13.70;99.90
12726;DHT22;6427;49.754;6.106;2022-10-30T10:03:02;14.00;99.90
12726;DHT22;6427;49.754;6.106;2022-10-30T10:05:28;14.00;99.90
12726;DHT22;6427;49.754;6.106;2022-10-30T10:08:03;14.10;99.90
12726;DHT22;6427;49.754;6.106;2022-10-30T10:10:43;14.10;99.90
12726;DHT22;6427;49.754;6.106;2022-10-30T10:13:14;14.20;99.90
12726;DHT22;6427;49.754;6.106;2022-10-30T10:15:42;14.30;99.90
12726;DHT22;6427;49.754;6.106;2022-10-30T10:18:28;14.30;99.90
12726;DHT22;6427;49.754;6.106;2022-10-30T10:20:55;14.40;99.90
12726;DHT22;6427;49.754;6.106;2022-10-30T10:25:59;14.80;99.90
12726;DHT22;6427;49.754;6.106;2022-10-30T10:28:46;14.80;99.90
12726;DHT22;6427;49.754;6.106;2022-10-30T10:31:14;15.10;99.90
12726;DHT22;6427;49.754;6.106;2022-10-30T10:41:47;15.60;99.90
12726;DHT22;6427;49.754;6.106;2022-10-30T10:47:01;15.80;99.90
12726;DHT22;6427;49.754;6.106;2022-10-30T10:51:55;16.10;99.90
12726;DHT22;6427;49.754;6.106;2022-10-30T10:54:24;16.20;99.90
12726;DHT22;6427;49.754;6.106;2022-10-30T10:56:49;16.60;99.90
12726;DHT22;6427;49.754;6.106;2022-10-30T10:59:20;16.90;99.90
12726;DHT22;6427;49.754;6.106;2022-10-30T11:01:51;17.00;99.90
12726;DHT22;6427;49.754;6.106;2022-10-30T11:04:30;17.10;99.90
12726;DHT22;6427;49.754;6.106;2022-10-30T11:06:57;17.10;99.90
12726;DHT22;6427;49.754;6.106;2022-10-30T11:09:25;17.20;99.90
12726;DHT22;6427;49.754;6.106;2022-10-30T11:11:53;17.40;99.90
12726;DHT22;6427;49.754;6.106;2022-10-30T11:14:25;17.40;99.90
12726;DHT22;6427;49.754;6.106;2022-10-30T11:19:37;17.50;99.90
12726;DHT22;6427;49.754;6.106;2022-10-30T11:22:16;17.70;99.90
12726;DHT22;6427;49.754;6.106;2022-10-30T11:24:39;17.70;99.90
12726;DHT22;6427;49.754;6.106;2022-10-30T11:30:02;17.80;99.90
12726;DHT22;6427;49.754;6.106;2022-10-30T11:32:26;17.90;99.90
12726;DHT22;6427;49.754;6.106;2022-10-30T11:35:10;18.30;99.90
12726;DHT22;6427;49.754;6.106;2022-10-30T11:37:33;18.30;99.90
12726;DHT22;6427;49.754;6.106;2022-10-30T11:42:49;18.30;99.90
12726;DHT22;6427;49.754;6.106;2022-10-30T11:45:17;18.40;99.90
12726;DHT22;6427;49.754;6.106;2022-10-30T11:47:40;18.50;99.90
12726;DHT22;6427;49.754;6.106;2022-10-30T11:50:23;18.60;99.90
12726;DHT22;6427;49.754;6.106;2022-10-30T11:52:51;18.70;99.90
12726;DHT22;6427;49.754;6.106;2022-10-30T11:55:39;18.80;99.90
12726;DHT22;6427;49.754;6.106;2022-10-30T11:58:06;19.00;99.90
12726;DHT22;6427;49.754;6.106;2022-10-30T12:00:36;19.10;99.90
12726;DHT22;6427;49.754;6.106;2022-10-30T12:03:04;19.20;99.90
12726;DHT22;6427;49.754;6.106;2022-10-30T12:05:33;19.50;99.90
12726;DHT22;6427;49.754;6.106;2022-10-30T12:13:19;19.50;99.90
12726;DHT22;6427;49.754;6.106;2022-10-30T12:15:47;19.70;99.90
12726;DHT22;6427;49.754;6.106;2022-10-30T12:18:21;20.00;99.90
12726;DHT22;6427;49.754;6.106;2022-10-30T12:20:48;20.00;99.90
12726;DHT22;6427;49.754;6.106;2022-10-30T12:23:18;20.00;99.90
12726;DHT22;6427;49.754;6.106;2022-10-30T12:25:45;20.00;99.90
12726;DHT22;6427;49.754;6.106;2022-10-30T12:28:13;20.00;99.90
12726;DHT22;6427;49.754;6.106;2022-10-30T12:31:01;20.00;99.90
12726;DHT22;6427;49.754;6.106;2022-10-30T12:33:15;20.10;99.90
12726;DHT22;6427;49.754;6.106;2022-10-30T12:38:12;20.10;99.90
12726;DHT22;6427;49.754;6.106;2022-10-30T12:40:39;20.40;99.90
12726;DHT22;6427;49.754;6.106;2022-10-30T12:43:12;20.40;99.90
12726;DHT22;6427;49.754;6.106;2022-10-30T12:45:44;20.40;99.90
12726;DHT22;6427;49.754;6.106;2022-10-30T12:48:31;20.40;99.90
12726;DHT22;6427;49.754;6.106;2022-10-30T12:53:41;20.50;99.90
12726;DHT22;6427;49.754;6.106;2022-10-30T12:56:12;20.60;99.90
12726;DHT22;6427;49.754;6.106;2022-10-30T13:01:38;20.60;99.90
12726;DHT22;6427;49.754;6.106;2022-10-30T13:04:14;20.70;99.90
12726;DHT22;6427;49.754;6.106;2022-10-30T13:12:04;20.70;99.90
12726;DHT22;6427;49.754;6.106;2022-10-30T13:14:33;20.80;99.90
12726;DHT22;6427;49.754;6.106;2022-10-30T13:16:58;20.80;99.90
12726;DHT22;6427;49.754;6.106;2022-10-30T13:19:25;20.80;99.90
12726;DHT22;6427;49.754;6.106;2022-10-30T13:21:59;20.90;99.90
12726;DHT22;6427;49.754;6.106;2022-10-30T13:28:16;20.90;99.90
12726;DHT22;6427;49.754;6.106;2022-10-30T13:29:53;21.00;99.90
12726;DHT22;6427;49.754;6.106;2022-10-30T13:35:23;21.30;99.90
12726;DHT22;6427;49.754;6.106;2022-10-30T13:40:41;21.40;96.60
12726;DHT22;6427;49.754;6.106;2022-10-30T13:54:24;21.60;92.50
12726;DHT22;6427;49.754;6.106;2022-10-30T13:56:50;21.60;91.80
12726;DHT22;6427;49.754;6.106;2022-10-30T13:59:23;21.80;90.50
12726;DHT22;6427;49.754;6.106;2022-10-30T14:02:06;21.80;90.10
12726;DHT22;6427;49.754;6.106;2022-10-30T14:12:51;21.50;86.50
12726;DHT22;6427;49.754;6.106;2022-10-30T14:15:03;21.50;86.20
12726;DHT22;6427;49.754;6.106;2022-10-30T14:17:31;21.30;85.90
12726;DHT22;6427;49.754;6.106;2022-10-30T14:22:32;21.30;86.70
12726;DHT22;6427;49.754;6.106;2022-10-30T14:25:00;21.30;86.60
12726;DHT22;6427;49.754;6.106;2022-10-30T14:27:31;21.40;87.30
12726;DHT22;6427;49.754;6.106;2022-10-30T14:29:55;21.60;85.70
12726;DHT22;6427;49.754;6.106;2022-10-30T14:39:55;21.60;86.20
12726;DHT22;6427;49.754;6.106;2022-10-30T14:42:35;21.50;86.20
12726;DHT22;6427;49.754;6.106;2022-10-30T14:50:51;21.40;86.00
12726;DHT22;6427;49.754;6.106;2022-10-30T14:52:36;21.70;85.40
12726;DHT22;6427;49.754;6.106;2022-10-30T14:57:45;21.60;85.40
12726;DHT22;6427;49.754;6.106;2022-10-30T15:13:50;21.30;86.40
12726;DHT22;6427;49.754;6.106;2022-10-30T15:16:17;21.30;86.90
12726;DHT22;6427;49.754;6.106;2022-10-30T15:18:54;21.30;87.20
12726;DHT22;6427;49.754;6.106;2022-10-30T15:21:17;21.20;87.30
12726;DHT22;6427;49.754;6.106;2022-10-30T15:23:42;21.20;87.60
12726;DHT22;6427;49.754;6.106;2022-10-30T15:26:19;21.10;87.40
12726;DHT22;6427;49.754;6.106;2022-10-30T15:28:47;21.30;86.50
12726;DHT22;6427;49.754;6.106;2022-10-30T15:33:44;21.10;86.40
12726;DHT22;6427;49.754;6.106;2022-10-30T15:36:21;21.00;86.50
12726;DHT22;6427;49.754;6.106;2022-10-30T15:39:31;20.90;86.80
12726;DHT22;6427;49.754;6.106;2022-10-30T15:41:12;20.80;87.20
12726;DHT22;6427;49.754;6.106;2022-10-30T15:43:41;20.60;88.10
12726;DHT22;6427;49.754;6.106;2022-10-30T15:46:08;20.60;88.50
12726;DHT22;6427;49.754;6.106;2022-10-30T15:48:40;20.50;89.40
12726;DHT22;6427;49.754;6.106;2022-10-30T15:51:20;20.50;89.40
12726;DHT22;6427;49.754;6.106;2022-10-30T15:56:32;20.30;90.20
12726;DHT22;6427;49.754;6.106;2022-10-30T15:59:01;20.10;90.50
12726;DHT22;6427;49.754;6.106;2022-10-30T16:01:32;20.10;91.00
12726;DHT22;6427;49.754;6.106;2022-10-30T16:03:59;20.00;91.40
12726;DHT22;6427;49.754;6.106;2022-10-30T16:06:30;20.00;91.20
12726;DHT22;6427;49.754;6.106;2022-10-30T16:08:56;19.90;91.50
12726;DHT22;6427;49.754;6.106;2022-10-30T16:11:24;19.80;91.70
12726;DHT22;6427;49.754;6.106;2022-10-30T16:13:51;19.70;92.10
12726;DHT22;6427;49.754;6.106;2022-10-30T16:16:26;19.60;92.50
12726;DHT22;6427;49.754;6.106;2022-10-30T16:18:49;19.50;92.90
12726;DHT22;6427;49.754;6.106;2022-10-30T16:21:17;19.40;93.40
12726;DHT22;6427;49.754;6.106;2022-10-30T16:23:49;19.60;93.80
12726;DHT22;6427;49.754;6.106;2022-10-30T16:26:26;19.30;94.00
12726;DHT22;6427;49.754;6.106;2022-10-30T16:28:52;19.30;94.00
12726;DHT22;6427;49.754;6.106;2022-10-30T16:31:20;19.10;94.40
12726;DHT22;6427;49.754;6.106;2022-10-30T16:33:47;19.00;94.80
12726;DHT22;6427;49.754;6.106;2022-10-30T16:36:16;18.70;95.70
12726;DHT22;6427;49.754;6.106;2022-10-30T16:38:45;18.70;95.70
12726;DHT22;6427;49.754;6.106;2022-10-30T16:41:11;18.60;96.20
12726;DHT22;6427;49.754;6.106;2022-10-30T16:43:42;18.50;96.80
12726;DHT22;6427;49.754;6.106;2022-10-30T16:48:56;18.60;97.70
12726;DHT22;6427;49.754;6.106;2022-10-30T16:51:23;18.40;98.10
12726;DHT22;6427;49.754;6.106;2022-10-30T16:53:51;18.30;98.50
12726;DHT22;6427;49.754;6.106;2022-10-30T16:56:25;18.50;99.70
12726;DHT22;6427;49.754;6.106;2022-10-30T16:58:53;18.30;99.70
12726;DHT22;6427;49.754;6.106;2022-10-30T17:01:26;18.20;99.90
12726;DHT22;6427;49.754;6.106;2022-10-30T17:03:55;18.20;99.90
12726;DHT22;6427;49.754;6.106;2022-10-30T17:06:33;18.10;99.90
12726;DHT22;6427;49.754;6.106;2022-10-30T17:08:57;17.90;99.90
12726;DHT22;6427;49.754;6.106;2022-10-30T17:11:37;17.70;99.90
12726;DHT22;6427;49.754;6.106;2022-10-30T17:14:14;17.50;99.90
12726;DHT22;6427;49.754;6.106;2022-10-30T17:16:34;17.40;99.90
12726;DHT22;6427;49.754;6.106;2022-10-30T17:21:58;17.30;99.90
12726;DHT22;6427;49.754;6.106;2022-10-30T17:24:32;17.10;99.90
12726;DHT22;6427;49.754;6.106;2022-10-30T17:27:00;17.00;99.90
12726;DHT22;6427;49.754;6.106;2022-10-30T17:32:04;16.80;99.90
12726;DHT22;6427;49.754;6.106;2022-10-30T17:34:37;16.80;99.90
12726;DHT22;6427;49.754;6.106;2022-10-30T17:37:05;16.70;99.90
12726;DHT22;6427;49.754;6.106;2022-10-30T17:39:32;16.90;99.90
12726;DHT22;6427;49.754;6.106;2022-10-30T17:42:01;17.00;99.90
12726;DHT22;6427;49.754;6.106;2022-10-30T17:44:29;17.00;99.90
12726;DHT22;6427;49.754;6.106;2022-10-30T17:46:56;16.80;99.90
12726;DHT22;6427;49.754;6.106;2022-10-30T17:51:51;16.60;99.90
12726;DHT22;6427;49.754;6.106;2022-10-30T17:54:18;16.70;99.90
12726;DHT22;6427;49.754;6.106;2022-10-30T17:56:46;16.60;99.90
12726;DHT22;6427;49.754;6.106;2022-10-30T17:59:14;16.40;99.90
12726;DHT22;6427;49.754;6.106;2022-10-30T18:01:42;16.20;99.90
12726;DHT22;6427;49.754;6.106;2022-10-30T18:04:12;16.20;99.90
12726;DHT22;6427;49.754;6.106;2022-10-30T18:06:39;16.00;99.90
12726;DHT22;6427;49.754;6.106;2022-10-30T18:09:06;16.00;99.90
12726;DHT22;6427;49.754;6.106;2022-10-30T18:11:34;16.00;99.90
12726;DHT22;6427;49.754;6.106;2022-10-30T18:14:02;15.90;99.90
12726;DHT22;6427;49.754;6.106;2022-10-30T18:16:29;15.80;99.90
12726;DHT22;6427;49.754;6.106;2022-10-30T18:18:57;15.80;99.90
12726;DHT22;6427;49.754;6.106;2022-10-30T18:21:24;15.70;99.90
12726;DHT22;6427;49.754;6.106;2022-10-30T18:23:53;15.60;99.90
12726;DHT22;6427;49.754;6.106;2022-10-30T18:26:21;15.60;99.90
12726;DHT22;6427;49.754;6.106;2022-10-30T18:28:48;15.60;99.90